sensor_id;sensor_type;location;lat;lon;timestamp;P1;durP1;ratioP1;P2;durP2;ratioP2
43527;SDS011;52359;42.658;23.320;2023-09-18T03:42:40;25.77;;;16.55;;
43527;SDS011;52359;42.658;23.320;2023-09-18T03:45:15;25.98;;;16.27;;
43527;SDS011;52359;42.658;23.320;2023-09-18T03:47:44;18.88;;;16.38;;
43527;SDS011;52359;42.658;23.320;2023-09-18T03:50:10;20.70;;;15.40;;
43527;SDS011;52359;42.658;23.320;2023-09-18T03:52:37;19.83;;;16.60;;
43527;SDS011;52359;42.658;23.320;2023-09-18T03:55:03;20.08;;;15.10;;
43527;SDS011;52359;42.658;23.320;2023-09-18T03:57:30;23.08;;;16.90;;
43527;SDS011;52359;42.658;23.320;2023-09-18T03:59:56;23.98;;;16.40;;
43527;SDS011;52359;42.658;23.320;2023-09-18T04:02:23;22.58;;;15.65;;
43527;SDS011;52359;42.658;23.320;2023-09-18T04:04:49;22.23;;;16.85;;
43527;SDS011;52359;42.658;23.320;2023-09-18T04:07:15;22.48;;;16.92;;
43527;SDS011;52359;42.658;23.320;2023-09-18T04:09:42;22.30;;;19.17;;
43527;SDS011;52359;42.658;23.320;2023-09-18T04:12:08;39.55;;;30.70;;
43527;SDS011;52359;42.658;23.320;2023-09-18T04:14:34;22.60;;;18.25;;
43527;SDS011;52359;42.658;23.320;2023-09-18T04:17:01;28.05;;;19.35;;
43527;SDS011;52359;42.658;23.320;2023-09-18T04:19:27;25.23;;;19.95;;
43527;SDS011;52359;42.658;23.320;2023-09-18T04:21:53;26.02;;;20.38;;
43527;SDS011;52359;42.658;23.320;2023-09-18T04:24:19;31.08;;;20.80;;
43527;SDS011;52359;42.658;23.320;2023-09-18T04:26:45;31.42;;;19.40;;
43527;SDS011;52359;42.658;23.320;2023-09-18T04:29:11;28.42;;;19.85;;
43527;SDS011;52359;42.658;23.320;2023-09-18T04:31:37;28.23;;;20.10;;
43527;SDS011;52359;42.658;23.320;2023-09-18T04:34:03;26.92;;;20.35;;
43527;SDS011;52359;42.658;23.320;2023-09-18T04:36:34;35.85;;;22.45;;
43527;SDS011;52359;42.658;23.320;2023-09-18T04:39:05;32.10;;;20.48;;
43527;SDS011;52359;42.658;23.320;2023-09-18T04:41:34;34.67;;;20.23;;
43527;SDS011;52359;42.658;23.320;2023-09-18T04:44:00;38.00;;;28.60;;
43527;SDS011;52359;42.658;23.320;2023-09-18T04:46:27;54.40;;;36.92;;
43527;SDS011;52359;42.658;23.320;2023-09-18T04:48:54;29.70;;;23.38;;
43527;SDS011;52359;42.658;23.320;2023-09-18T04:51:20;30.50;;;21.55;;
43527;SDS011;52359;42.658;23.320;2023-09-18T04:53:46;34.30;;;22.20;;
43527;SDS011;52359;42.658;23.320;2023-09-18T04:56:12;29.90;;;20.58;;
43527;SDS011;52359;42.658;23.320;2023-09-18T04:58:38;35.83;;;21.33;;
43527;SDS011;52359;42.658;23.320;2023-09-18T05:01:05;35.38;;;20.73;;
43527;SDS011;52359;42.658;23.320;2023-09-18T05:03:34;32.13;;;20.38;;
43527;SDS011;52359;42.658;23.320;2023-09-18T05:06:01;24.90;;;19.65;;
43527;SDS011;52359;42.658;23.320;2023-09-18T05:08:28;30.23;;;19.98;;
43527;SDS011;52359;42.658;23.320;2023-09-18T05:10:54;28.17;;;20.27;;
43527;SDS011;52359;42.658;23.320;2023-09-18T05:13:20;33.55;;;21.77;;
43527;SDS011;52359;42.658;23.320;2023-09-18T05:15:46;38.15;;;21.40;;
43527;SDS011;52359;42.658;23.320;2023-09-18T05:18:12;32.45;;;20.70;;
43527;SDS011;52359;42.658;23.320;2023-09-18T05:20:39;31.02;;;22.00;;
43527;SDS011;52359;42.658;23.320;2023-09-18T05:23:05;31.08;;;21.45;;
43527;SDS011;52359;42.658;23.320;2023-09-18T05:25:32;32.63;;;22.50;;
43527;SDS011;52359;42.658;23.320;2023-09-18T05:27:59;30.13;;;21.13;;
43527;SDS011;52359;42.658;23.320;2023-09-18T05:30:26;27.85;;;21.15;;
43527;SDS011;52359;42.658;23.320;2023-09-18T05:32:53;32.45;;;21.23;;
43527;SDS011;52359;42.658;23.320;2023-09-18T05:35:19;31.08;;;23.10;;
43527;SDS011;52359;42.658;23.320;2023-09-18T05:37:46;38.00;;;22.55;;
43527;SDS011;52359;42.658;23.320;2023-09-18T05:40:12;33.15;;;20.40;;
43527;SDS011;52359;42.658;23.320;2023-09-18T05:42:40;29.48;;;20.42;;
43527;SDS011;52359;42.658;23.320;2023-09-18T05:45:11;37.42;;;22.40;;
43527;SDS011;52359;42.658;23.320;2023-09-18T05:47:37;34.50;;;21.75;;
43527;SDS011;52359;42.658;23.320;2023-09-18T05:50:04;30.40;;;20.70;;
43527;SDS011;52359;42.658;23.320;2023-09-18T05:52:31;36.88;;;22.75;;
43527;SDS011;52359;42.658;23.320;2023-09-18T05:54:58;43.72;;;28.27;;
43527;SDS011;52359;42.658;23.320;2023-09-18T05:57:24;44.85;;;29.50;;
43527;SDS011;52359;42.658;23.320;2023-09-18T05:59:50;34.00;;;23.13;;
43527;SDS011;52359;42.658;23.320;2023-09-18T06:02:16;31.88;;;20.98;;
43527;SDS011;52359;42.658;23.320;2023-09-18T06:04:42;34.30;;;22.63;;
43527;SDS011;52359;42.658;23.320;2023-09-18T06:07:08;29.77;;;21.00;;
43527;SDS011;52359;42.658;23.320;2023-09-18T06:09:34;37.50;;;22.38;;
43527;SDS011;52359;42.658;23.320;2023-09-18T06:12:00;26.55;;;20.05;;
43527;SDS011;52359;42.658;23.320;2023-09-18T06:14:26;29.73;;;20.65;;
43527;SDS011;52359;42.658;23.320;2023-09-18T06:16:52;26.00;;;19.55;;
43527;SDS011;52359;42.658;23.320;2023-09-18T06:19:18;34.33;;;21.52;;
43527;SDS011;52359;42.658;23.320;2023-09-18T06:21:44;32.75;;;19.83;;
43527;SDS011;52359;42.658;23.320;2023-09-18T06:24:10;24.88;;;20.15;;
43527;SDS011;52359;42.658;23.320;2023-09-18T06:26:37;22.35;;;17.58;;
43527;SDS011;52359;42.658;23.320;2023-09-18T06:29:03;25.65;;;19.15;;
43527;SDS011;52359;42.658;23.320;2023-09-18T06:31:30;24.67;;;19.55;;
43527;SDS011;52359;42.658;23.320;2023-09-18T06:33:56;24.98;;;19.83;;
43527;SDS011;52359;42.658;23.320;2023-09-18T06:36:22;25.13;;;18.88;;
43527;SDS011;52359;42.658;23.320;2023-09-18T06:38:48;27.83;;;17.90;;
43527;SDS011;52359;42.658;23.320;2023-09-18T06:41:14;24.52;;;18.25;;
43527;SDS011;52359;42.658;23.320;2023-09-18T06:43:40;26.75;;;18.20;;
43527;SDS011;52359;42.658;23.320;2023-09-18T06:46:07;22.52;;;18.60;;
43527;SDS011;52359;42.658;23.320;2023-09-18T06:48:33;24.08;;;17.10;;
43527;SDS011;52359;42.658;23.320;2023-09-18T06:50:59;22.73;;;18.08;;
43527;SDS011;52359;42.658;23.320;2023-09-18T06:53:28;43.65;;;22.23;;
43527;SDS011;52359;42.658;23.320;2023-09-18T06:55:55;27.20;;;19.67;;
43527;SDS011;52359;42.658;23.320;2023-09-18T06:58:21;22.17;;;16.35;;
43527;SDS011;52359;42.658;23.320;2023-09-18T07:00:47;26.55;;;16.02;;
43527;SDS011;52359;42.658;23.320;2023-09-18T07:03:15;18.90;;;15.63;;
43527;SDS011;52359;42.658;23.320;2023-09-18T07:05:42;22.77;;;15.50;;
43527;SDS011;52359;42.658;23.320;2023-09-18T07:08:09;23.63;;;14.98;;
43527;SDS011;52359;42.658;23.320;2023-09-18T07:10:37;18.05;;;14.32;;
43527;SDS011;52359;42.658;23.320;2023-09-18T07:13:03;21.88;;;15.43;;
43527;SDS011;52359;42.658;23.320;2023-09-18T07:15:29;19.60;;;15.13;;
43527;SDS011;52359;42.658;23.320;2023-09-18T07:17:55;19.50;;;14.07;;
43527;SDS011;52359;42.658;23.320;2023-09-18T07:20:21;17.83;;;14.27;;
43527;SDS011;52359;42.658;23.320;2023-09-18T07:22:49;20.88;;;14.63;;
43527;SDS011;52359;42.658;23.320;2023-09-18T07:25:15;23.27;;;15.20;;
43527;SDS011;52359;42.658;23.320;2023-09-18T07:27:41;22.85;;;15.98;;
43527;SDS011;52359;42.658;23.320;2023-09-18T07:30:09;26.10;;;17.45;;
43527;SDS011;52359;42.658;23.320;2023-09-18T07:32:36;21.45;;;15.80;;
43527;SDS011;52359;42.658;23.320;2023-09-18T07:35:02;20.42;;;13.73;;
43527;SDS011;52359;42.658;23.320;2023-09-18T07:37:31;20.30;;;14.00;;
43527;SDS011;52359;42.658;23.320;2023-09-18T07:39:57;21.38;;;13.75;;
43527;SDS011;52359;42.658;23.320;2023-09-18T07:42:24;21.23;;;14.32;;
43527;SDS011;52359;42.658;23.320;2023-09-18T07:44:50;17.65;;;12.70;;
43527;SDS011;52359;42.658;23.320;2023-09-18T07:47:16;19.13;;;13.43;;
43527;SDS011;52359;42.658;23.320;2023-09-18T07:49:42;21.80;;;15.02;;
43527;SDS011;52359;42.658;23.320;2023-09-18T07:52:08;19.10;;;14.60;;
43527;SDS011;52359;42.658;23.320;2023-09-18T07:54:34;18.42;;;15.07;;
43527;SDS011;52359;42.658;23.320;2023-09-18T07:57:00;19.40;;;13.38;;
43527;SDS011;52359;42.658;23.320;2023-09-18T07:59:26;16.83;;;14.40;;
43527;SDS011;52359;42.658;23.320;2023-09-18T08:01:52;22.63;;;13.88;;
43527;SDS011;52359;42.658;23.320;2023-09-18T08:04:19;18.77;;;14.60;;
43527;SDS011;52359;42.658;23.320;2023-09-18T08:06:45;28.92;;;15.52;;
43527;SDS011;52359;42.658;23.320;2023-09-18T08:09:12;25.65;;;15.93;;
43527;SDS011;52359;42.658;23.320;2023-09-18T08:11:42;16.23;;;14.45;;
43527;SDS011;52359;42.658;23.320;2023-09-18T08:14:08;22.52;;;14.25;;
43527;SDS011;52359;42.658;23.320;2023-09-18T08:16:34;17.60;;;13.95;;
43527;SDS011;52359;42.658;23.320;2023-09-18T08:19:01;18.27;;;13.88;;
43527;SDS011;52359;42.658;23.320;2023-09-18T08:21:27;17.23;;;13.80;;
43527;SDS011;52359;42.658;23.320;2023-09-18T08:23:54;17.77;;;13.88;;
43527;SDS011;52359;42.658;23.320;2023-09-18T08:26:20;21.40;;;13.38;;
43527;SDS011;52359;42.658;23.320;2023-09-18T08:28:47;16.73;;;12.27;;
43527;SDS011;52359;42.658;23.320;2023-09-18T08:31:13;16.08;;;13.98;;
43527;SDS011;52359;42.658;23.320;2023-09-18T08:33:41;15.73;;;14.00;;
43527;SDS011;52359;42.658;23.320;2023-09-18T08:36:08;18.52;;;14.23;;
43527;SDS011;52359;42.658;23.320;2023-09-18T08:38:34;15.60;;;13.30;;
43527;SDS011;52359;42.658;23.320;2023-09-18T08:41:00;19.88;;;13.93;;
43527;SDS011;52359;42.658;23.320;2023-09-18T08:43:26;16.83;;;12.82;;
43527;SDS011;52359;42.658;23.320;2023-09-18T08:45:54;17.65;;;13.95;;
43527;SDS011;52359;42.658;23.320;2023-09-18T08:48:25;14.50;;;12.95;;
43527;SDS011;52359;42.658;23.320;2023-09-18T08:50:59;31.85;;;13.27;;
43527;SDS011;52359;42.658;23.320;2023-09-18T08:53:25;14.55;;;12.93;;
43527;SDS011;52359;42.658;23.320;2023-09-18T08:55:52;20.35;;;13.02;;
43527;SDS011;52359;42.658;23.320;2023-09-18T08:58:23;18.77;;;13.50;;
43527;SDS011;52359;42.658;23.320;2023-09-18T09:00:49;15.93;;;12.98;;
43527;SDS011;52359;42.658;23.320;2023-09-18T09:03:15;12.63;;;11.32;;
43527;SDS011;52359;42.658;23.320;2023-09-18T09:05:42;12.75;;;11.35;;
43527;SDS011;52359;42.658;23.320;2023-09-18T09:08:08;16.70;;;13.43;;
43527;SDS011;52359;42.658;23.320;2023-09-18T09:10:34;13.85;;;12.35;;
43527;SDS011;52359;42.658;23.320;2023-09-18T09:13:00;18.80;;;13.50;;
43527;SDS011;52359;42.658;23.320;2023-09-18T09:15:46;19.85;;;11.50;;
43527;SDS011;52359;42.658;23.320;2023-09-18T09:18:13;16.10;;;12.18;;
43527;SDS011;52359;42.658;23.320;2023-09-18T09:21:01;12.55;;;11.13;;
43527;SDS011;52359;42.658;23.320;2023-09-18T09:23:30;14.15;;;9.80;;
43527;SDS011;52359;42.658;23.320;2023-09-18T09:28:38;12.70;;;8.63;;
43527;SDS011;52359;42.658;23.320;2023-09-18T09:31:04;16.60;;;10.43;;
43527;SDS011;52359;42.658;23.320;2023-09-18T09:33:30;15.55;;;8.80;;
43527;SDS011;52359;42.658;23.320;2023-09-18T09:35:57;12.55;;;8.35;;
43527;SDS011;52359;42.658;23.320;2023-09-18T09:38:28;15.32;;;9.10;;
43527;SDS011;52359;42.658;23.320;2023-09-18T09:40:58;11.27;;;9.32;;
43527;SDS011;52359;42.658;23.320;2023-09-18T09:43:25;12.88;;;9.95;;
43527;SDS011;52359;42.658;23.320;2023-09-18T09:45:58;12.10;;;8.80;;
43527;SDS011;52359;42.658;23.320;2023-09-18T09:48:24;12.10;;;9.77;;
43527;SDS011;52359;42.658;23.320;2023-09-18T09:50:50;9.55;;;8.63;;
43527;SDS011;52359;42.658;23.320;2023-09-18T09:53:17;13.10;;;8.50;;
43527;SDS011;52359;42.658;23.320;2023-09-18T09:55:43;11.82;;;8.98;;
43527;SDS011;52359;42.658;23.320;2023-09-18T09:58:10;11.77;;;7.90;;
43527;SDS011;52359;42.658;23.320;2023-09-18T10:00:41;8.43;;;7.63;;
43527;SDS011;52359;42.658;23.320;2023-09-18T10:03:12;13.98;;;9.30;;
43527;SDS011;52359;42.658;23.320;2023-09-18T10:05:39;9.45;;;7.95;;
43527;SDS011;52359;42.658;23.320;2023-09-18T10:08:12;9.73;;;7.80;;
43527;SDS011;52359;42.658;23.320;2023-09-18T10:10:46;9.00;;;8.18;;
43527;SDS011;52359;42.658;23.320;2023-09-18T10:13:16;18.08;;;8.05;;
43527;SDS011;52359;42.658;23.320;2023-09-18T10:15:43;8.25;;;7.45;;
43527;SDS011;52359;42.658;23.320;2023-09-18T10:20:56;10.00;;;7.20;;
43527;SDS011;52359;42.658;23.320;2023-09-18T10:23:43;8.48;;;7.55;;
43527;SDS011;52359;42.658;23.320;2023-09-18T10:26:12;11.50;;;7.13;;
43527;SDS011;52359;42.658;23.320;2023-09-18T10:28:41;8.95;;;6.95;;
43527;SDS011;52359;42.658;23.320;2023-09-18T10:31:10;12.88;;;7.25;;
43527;SDS011;52359;42.658;23.320;2023-09-18T10:33:37;8.85;;;6.97;;
43527;SDS011;52359;42.658;23.320;2023-09-18T10:36:04;9.57;;;6.28;;
43527;SDS011;52359;42.658;23.320;2023-09-18T10:38:31;15.68;;;7.10;;
43527;SDS011;52359;42.658;23.320;2023-09-18T10:40:57;8.32;;;6.53;;
43527;SDS011;52359;42.658;23.320;2023-09-18T10:43:24;11.38;;;6.30;;
43527;SDS011;52359;42.658;23.320;2023-09-18T10:45:50;8.48;;;5.53;;
43527;SDS011;52359;42.658;23.320;2023-09-18T10:48:17;7.13;;;5.45;;
43527;SDS011;52359;42.658;23.320;2023-09-18T10:50:43;6.40;;;5.25;;
43527;SDS011;52359;42.658;23.320;2023-09-18T10:53:10;14.50;;;5.93;;
43527;SDS011;52359;42.658;23.320;2023-09-18T10:55:36;10.57;;;5.28;;
43527;SDS011;52359;42.658;23.320;2023-09-18T10:58:03;6.72;;;5.15;;
43527;SDS011;52359;42.658;23.320;2023-09-18T11:00:29;11.30;;;4.82;;
43527;SDS011;52359;42.658;23.320;2023-09-18T11:05:37;14.02;;;4.85;;
43527;SDS011;52359;42.658;23.320;2023-09-18T11:11:00;9.50;;;4.95;;
43527;SDS011;52359;42.658;23.320;2023-09-18T11:13:34;5.05;;;4.43;;
43527;SDS011;52359;42.658;23.320;2023-09-18T11:16:01;10.32;;;5.25;;
43527;SDS011;52359;42.658;23.320;2023-09-18T11:18:34;11.15;;;5.00;;
43527;SDS011;52359;42.658;23.320;2023-09-18T11:21:10;5.82;;;3.92;;
43527;SDS011;52359;42.658;23.320;2023-09-18T11:23:37;10.27;;;4.72;;
43527;SDS011;52359;42.658;23.320;2023-09-18T11:26:03;15.65;;;5.80;;
43527;SDS011;52359;42.658;23.320;2023-09-18T11:28:31;12.23;;;4.97;;
43527;SDS011;52359;42.658;23.320;2023-09-18T11:30:57;9.05;;;5.07;;
43527;SDS011;52359;42.658;23.320;2023-09-18T11:38:52;9.77;;;5.13;;
43527;SDS011;52359;42.658;23.320;2023-09-18T11:41:19;9.50;;;4.70;;
43527;SDS011;52359;42.658;23.320;2023-09-18T11:46:35;9.32;;;4.75;;
43527;SDS011;52359;42.658;23.320;2023-09-18T11:49:05;15.02;;;4.47;;
43527;SDS011;52359;42.658;23.320;2023-09-18T11:51:34;7.88;;;3.83;;
43527;SDS011;52359;42.658;23.320;2023-09-18T11:54:00;15.45;;;6.55;;
43527;SDS011;52359;42.658;23.320;2023-09-18T11:56:29;15.38;;;4.97;;
43527;SDS011;52359;42.658;23.320;2023-09-18T11:59:00;7.30;;;4.78;;
43527;SDS011;52359;42.658;23.320;2023-09-18T12:01:30;6.82;;;4.72;;
43527;SDS011;52359;42.658;23.320;2023-09-18T12:04:02;10.93;;;5.05;;
43527;SDS011;52359;42.658;23.320;2023-09-18T12:06:38;17.63;;;7.20;;
43527;SDS011;52359;42.658;23.320;2023-09-18T12:09:04;9.38;;;3.83;;
43527;SDS011;52359;42.658;23.320;2023-09-18T12:11:32;14.00;;;4.65;;
43527;SDS011;52359;42.658;23.320;2023-09-18T12:13:59;6.05;;;4.40;;
43527;SDS011;52359;42.658;23.320;2023-09-18T12:16:25;8.88;;;4.22;;
43527;SDS011;52359;42.658;23.320;2023-09-18T12:18:52;7.72;;;4.60;;
43527;SDS011;52359;42.658;23.320;2023-09-18T12:21:18;33.45;;;5.10;;
43527;SDS011;52359;42.658;23.320;2023-09-18T12:23:45;48.13;;;6.32;;
43527;SDS011;52359;42.658;23.320;2023-09-18T12:26:11;8.48;;;4.15;;
43527;SDS011;52359;42.658;23.320;2023-09-18T12:28:42;9.75;;;4.68;;
43527;SDS011;52359;42.658;23.320;2023-09-18T12:31:15;19.98;;;4.78;;
43527;SDS011;52359;42.658;23.320;2023-09-18T12:33:42;14.25;;;8.65;;
43527;SDS011;52359;42.658;23.320;2023-09-18T12:36:09;14.50;;;5.50;;
43527;SDS011;52359;42.658;23.320;2023-09-18T12:38:35;24.08;;;4.53;;
43527;SDS011;52359;42.658;23.320;2023-09-18T12:41:02;10.52;;;4.63;;
43527;SDS011;52359;42.658;23.320;2023-09-18T12:43:35;8.13;;;4.85;;
43527;SDS011;52359;42.658;23.320;2023-09-18T12:46:02;4.97;;;4.28;;
43527;SDS011;52359;42.658;23.320;2023-09-18T12:48:28;10.88;;;4.30;;
43527;SDS011;52359;42.658;23.320;2023-09-18T12:50:54;8.82;;;4.97;;
43527;SDS011;52359;42.658;23.320;2023-09-18T12:53:21;14.75;;;4.10;;
43527;SDS011;52359;42.658;23.320;2023-09-18T12:55:48;8.43;;;5.18;;
43527;SDS011;52359;42.658;23.320;2023-09-18T12:58:17;5.32;;;4.30;;
43527;SDS011;52359;42.658;23.320;2023-09-18T13:00:44;6.88;;;4.30;;
43527;SDS011;52359;42.658;23.320;2023-09-18T13:03:12;10.23;;;4.93;;
43527;SDS011;52359;42.658;23.320;2023-09-18T13:05:39;8.95;;;4.93;;
43527;SDS011;52359;42.658;23.320;2023-09-18T13:08:05;4.40;;;3.70;;
43527;SDS011;52359;42.658;23.320;2023-09-18T13:10:42;27.15;;;6.40;;
43527;SDS011;52359;42.658;23.320;2023-09-18T13:13:15;7.53;;;4.30;;
43527;SDS011;52359;42.658;23.320;2023-09-18T13:15:41;12.15;;;5.00;;
43527;SDS011;52359;42.658;23.320;2023-09-18T13:18:10;11.73;;;4.80;;
43527;SDS011;52359;42.658;23.320;2023-09-18T13:20:37;8.80;;;4.35;;
43527;SDS011;52359;42.658;23.320;2023-09-18T13:23:04;5.47;;;3.92;;
43527;SDS011;52359;42.658;23.320;2023-09-18T13:25:32;5.43;;;3.83;;
43527;SDS011;52359;42.658;23.320;2023-09-18T13:28:03;8.13;;;4.82;;
43527;SDS011;52359;42.658;23.320;2023-09-18T13:30:29;12.07;;;3.45;;
43527;SDS011;52359;42.658;23.320;2023-09-18T13:33:06;6.35;;;4.28;;
43527;SDS011;52359;42.658;23.320;2023-09-18T13:35:33;10.65;;;4.07;;
43527;SDS011;52359;42.658;23.320;2023-09-18T13:37:59;7.38;;;4.50;;
43527;SDS011;52359;42.658;23.320;2023-09-18T13:40:25;9.02;;;3.55;;
43527;SDS011;52359;42.658;23.320;2023-09-18T13:42:52;6.43;;;4.07;;
43527;SDS011;52359;42.658;23.320;2023-09-18T13:45:18;6.40;;;3.83;;
43527;SDS011;52359;42.658;23.320;2023-09-18T13:47:45;9.82;;;4.30;;
43527;SDS011;52359;42.658;23.320;2023-09-18T13:50:10;8.43;;;5.10;;
43527;SDS011;52359;42.658;23.320;2023-09-18T13:52:38;11.43;;;4.35;;
43527;SDS011;52359;42.658;23.320;2023-09-18T13:55:04;10.80;;;4.50;;
43527;SDS011;52359;42.658;23.320;2023-09-18T13:57:30;9.70;;;4.40;;
43527;SDS011;52359;42.658;23.320;2023-09-18T14:00:03;9.93;;;5.07;;
43527;SDS011;52359;42.658;23.320;2023-09-18T14:02:34;7.43;;;3.90;;
43527;SDS011;52359;42.658;23.320;2023-09-18T14:05:00;6.75;;;4.22;;
43527;SDS011;52359;42.658;23.320;2023-09-18T14:07:25;8.85;;;4.80;;
43527;SDS011;52359;42.658;23.320;2023-09-18T14:09:51;12.13;;;4.50;;
43527;SDS011;52359;42.658;23.320;2023-09-18T14:12:17;14.50;;;4.78;;
43527;SDS011;52359;42.658;23.320;2023-09-18T14:14:43;9.90;;;5.20;;
43527;SDS011;52359;42.658;23.320;2023-09-18T14:17:12;10.82;;;5.18;;
43527;SDS011;52359;42.658;23.320;2023-09-18T14:19:37;12.50;;;4.30;;
43527;SDS011;52359;42.658;23.320;2023-09-18T14:22:04;6.93;;;5.03;;
43527;SDS011;52359;42.658;23.320;2023-09-18T14:24:31;7.90;;;4.53;;
43527;SDS011;52359;42.658;23.320;2023-09-18T14:26:59;6.53;;;4.68;;
43527;SDS011;52359;42.658;23.320;2023-09-18T14:29:28;5.13;;;4.20;;
43527;SDS011;52359;42.658;23.320;2023-09-18T14:31:58;7.60;;;4.13;;
43527;SDS011;52359;42.658;23.320;2023-09-18T14:34:24;7.85;;;3.70;;
43527;SDS011;52359;42.658;23.320;2023-09-18T14:36:50;4.88;;;4.25;;
43527;SDS011;52359;42.658;23.320;2023-09-18T14:39:15;6.50;;;4.38;;
43527;SDS011;52359;42.658;23.320;2023-09-18T14:41:41;11.55;;;4.50;;
43527;SDS011;52359;42.658;23.320;2023-09-18T14:44:07;12.40;;;4.78;;
43527;SDS011;52359;42.658;23.320;2023-09-18T14:46:34;6.13;;;4.47;;
43527;SDS011;52359;42.658;23.320;2023-09-18T14:49:02;7.38;;;4.68;;
43527;SDS011;52359;42.658;23.320;2023-09-18T14:51:28;10.65;;;4.05;;
43527;SDS011;52359;42.658;23.320;2023-09-18T14:53:57;11.02;;;5.30;;
43527;SDS011;52359;42.658;23.320;2023-09-18T14:56:23;18.02;;;5.15;;
43527;SDS011;52359;42.658;23.320;2023-09-18T14:58:49;5.75;;;4.50;;
43527;SDS011;52359;42.658;23.320;2023-09-18T15:01:16;14.90;;;6.65;;
43527;SDS011;52359;42.658;23.320;2023-09-18T15:03:42;8.35;;;4.72;;
43527;SDS011;52359;42.658;23.320;2023-09-18T15:06:09;9.45;;;5.00;;
43527;SDS011;52359;42.658;23.320;2023-09-18T15:08:35;16.30;;;4.85;;
43527;SDS011;52359;42.658;23.320;2023-09-18T15:11:01;8.55;;;4.18;;
43527;SDS011;52359;42.658;23.320;2023-09-18T15:13:29;9.27;;;4.57;;
43527;SDS011;52359;42.658;23.320;2023-09-18T15:15:55;8.38;;;4.60;;
43527;SDS011;52359;42.658;23.320;2023-09-18T15:18:21;10.85;;;4.70;;
43527;SDS011;52359;42.658;23.320;2023-09-18T15:20:46;10.93;;;5.03;;
43527;SDS011;52359;42.658;23.320;2023-09-18T15:23:12;7.75;;;4.72;;
43527;SDS011;52359;42.658;23.320;2023-09-18T15:25:38;9.90;;;5.20;;
43527;SDS011;52359;42.658;23.320;2023-09-18T15:28:06;9.45;;;4.60;;
43527;SDS011;52359;42.658;23.320;2023-09-18T15:30:32;11.93;;;5.13;;
43527;SDS011;52359;42.658;23.320;2023-09-18T15:33:00;12.65;;;5.20;;
43527;SDS011;52359;42.658;23.320;2023-09-18T15:35:26;8.05;;;4.68;;
43527;SDS011;52359;42.658;23.320;2023-09-18T15:37:52;5.05;;;4.57;;
43527;SDS011;52359;42.658;23.320;2023-09-18T15:40:19;5.35;;;4.35;;
43527;SDS011;52359;42.658;23.320;2023-09-18T15:42:46;7.30;;;4.53;;
43527;SDS011;52359;42.658;23.320;2023-09-18T15:45:12;11.35;;;4.63;;
43527;SDS011;52359;42.658;23.320;2023-09-18T15:47:39;8.30;;;4.60;;
43527;SDS011;52359;42.658;23.320;2023-09-18T15:50:06;6.72;;;4.60;;
43527;SDS011;52359;42.658;23.320;2023-09-18T15:52:32;5.30;;;4.80;;
43527;SDS011;52359;42.658;23.320;2023-09-18T15:54:58;6.13;;;5.03;;
43527;SDS011;52359;42.658;23.320;2023-09-18T15:57:25;11.20;;;4.95;;
43527;SDS011;52359;42.658;23.320;2023-09-18T15:59:54;5.88;;;4.13;;
43527;SDS011;52359;42.658;23.320;2023-09-18T16:02:20;6.65;;;4.53;;
43527;SDS011;52359;42.658;23.320;2023-09-18T16:04:46;5.50;;;4.50;;
43527;SDS011;52359;42.658;23.320;2023-09-18T16:07:12;6.72;;;4.35;;
43527;SDS011;52359;42.658;23.320;2023-09-18T16:09:39;10.05;;;4.18;;
43527;SDS011;52359;42.658;23.320;2023-09-18T16:12:05;7.28;;;4.53;;
43527;SDS011;52359;42.658;23.320;2023-09-18T16:14:32;7.03;;;3.83;;
43527;SDS011;52359;42.658;23.320;2023-09-18T16:16:58;5.72;;;4.53;;
43527;SDS011;52359;42.658;23.320;2023-09-18T16:19:31;5.65;;;4.47;;
43527;SDS011;52359;42.658;23.320;2023-09-18T16:21:58;7.43;;;4.82;;
43527;SDS011;52359;42.658;23.320;2023-09-18T16:24:24;5.63;;;4.63;;
43527;SDS011;52359;42.658;23.320;2023-09-18T16:26:50;5.82;;;4.82;;
43527;SDS011;52359;42.658;23.320;2023-09-18T16:29:16;6.32;;;4.05;;
43527;SDS011;52359;42.658;23.320;2023-09-18T16:31:43;10.15;;;5.47;;
43527;SDS011;52359;42.658;23.320;2023-09-18T16:34:09;8.38;;;4.57;;
43527;SDS011;52359;42.658;23.320;2023-09-18T16:36:35;12.13;;;5.72;;
43527;SDS011;52359;42.658;23.320;2023-09-18T16:39:01;10.80;;;4.85;;
43527;SDS011;52359;42.658;23.320;2023-09-18T16:41:27;5.55;;;4.63;;
43527;SDS011;52359;42.658;23.320;2023-09-18T16:43:54;13.10;;;5.20;;
43527;SDS011;52359;42.658;23.320;2023-09-18T16:46:20;11.18;;;4.40;;
43527;SDS011;52359;42.658;23.320;2023-09-18T16:48:46;12.30;;;4.38;;
43527;SDS011;52359;42.658;23.320;2023-09-18T16:51:13;5.50;;;4.57;;
43527;SDS011;52359;42.658;23.320;2023-09-18T16:53:39;14.48;;;5.63;;
43527;SDS011;52359;42.658;23.320;2023-09-18T16:56:05;6.80;;;4.78;;
43527;SDS011;52359;42.658;23.320;2023-09-18T16:58:31;10.25;;;4.90;;
43527;SDS011;52359;42.658;23.320;2023-09-18T17:00:57;7.20;;;4.63;;
43527;SDS011;52359;42.658;23.320;2023-09-18T17:03:23;8.88;;;4.93;;
43527;SDS011;52359;42.658;23.320;2023-09-18T17:05:49;7.70;;;4.85;;
43527;SDS011;52359;42.658;23.320;2023-09-18T17:08:15;8.30;;;5.13;;
43527;SDS011;52359;42.658;23.320;2023-09-18T17:10:42;10.85;;;4.65;;
43527;SDS011;52359;42.658;23.320;2023-09-18T17:13:08;8.25;;;5.18;;
43527;SDS011;52359;42.658;23.320;2023-09-18T17:15:34;12.20;;;4.57;;
43527;SDS011;52359;42.658;23.320;2023-09-18T17:18:01;11.70;;;4.93;;
43527;SDS011;52359;42.658;23.320;2023-09-18T17:20:29;7.10;;;5.15;;
43527;SDS011;52359;42.658;23.320;2023-09-18T17:22:55;10.00;;;4.60;;
43527;SDS011;52359;42.658;23.320;2023-09-18T17:25:21;13.63;;;5.25;;
43527;SDS011;52359;42.658;23.320;2023-09-18T17:27:47;14.80;;;4.97;;
43527;SDS011;52359;42.658;23.320;2023-09-18T17:30:13;12.27;;;5.07;;
43527;SDS011;52359;42.658;23.320;2023-09-18T17:32:40;13.10;;;5.28;;
43527;SDS011;52359;42.658;23.320;2023-09-18T17:35:06;12.25;;;5.35;;
43527;SDS011;52359;42.658;23.320;2023-09-18T17:37:32;10.20;;;5.32;;
43527;SDS011;52359;42.658;23.320;2023-09-18T17:39:58;18.25;;;5.05;;
43527;SDS011;52359;42.658;23.320;2023-09-18T17:42:24;9.60;;;5.30;;
43527;SDS011;52359;42.658;23.320;2023-09-18T17:44:50;12.10;;;4.32;;
43527;SDS011;52359;42.658;23.320;2023-09-18T17:47:16;10.30;;;4.65;;
43527;SDS011;52359;42.658;23.320;2023-09-18T17:49:42;11.43;;;4.18;;
43527;SDS011;52359;42.658;23.320;2023-09-18T17:52:09;11.68;;;4.82;;
43527;SDS011;52359;42.658;23.320;2023-09-18T17:54:36;6.43;;;4.68;;
43527;SDS011;52359;42.658;23.320;2023-09-18T17:57:03;10.27;;;4.90;;
43527;SDS011;52359;42.658;23.320;2023-09-18T17:59:29;8.15;;;5.32;;
43527;SDS011;52359;42.658;23.320;2023-09-18T18:01:55;11.93;;;5.20;;
43527;SDS011;52359;42.658;23.320;2023-09-18T18:04:21;5.20;;;4.68;;
43527;SDS011;52359;42.658;23.320;2023-09-18T18:06:47;10.48;;;4.70;;
43527;SDS011;52359;42.658;23.320;2023-09-18T18:09:14;8.48;;;4.63;;
43527;SDS011;52359;42.658;23.320;2023-09-18T18:11:40;8.50;;;4.68;;
43527;SDS011;52359;42.658;23.320;2023-09-18T18:14:06;8.70;;;4.93;;
43527;SDS011;52359;42.658;23.320;2023-09-18T18:16:32;7.78;;;4.65;;
43527;SDS011;52359;42.658;23.320;2023-09-18T18:18:59;14.63;;;5.30;;
43527;SDS011;52359;42.658;23.320;2023-09-18T18:21:25;10.82;;;4.70;;